createdAt,value
2019-06-26T00:01:01.914Z,12.43
2019-06-26T00:02:06.479Z,13.43
2019-06-26T00:03:11.624Z,12.53
2019-06-26T00:04:16.224Z,11.88
2019-06-26T00:06:15.942Z,11.65
2019-06-26T00:07:38.292Z,11.35
2019-06-26T00:08:43.459Z,14.15
2019-06-26T00:09:48.111Z,12.98
2019-06-26T00:10:53.544Z,12.07
2019-06-26T00:11:58.095Z,12.28
2019-06-26T00:13:03.163Z,12.35
2019-06-26T00:14:08.045Z,12.20
2019-06-26T00:15:13.541Z,11.50
2019-06-26T00:16:18.038Z,12.93
2019-06-26T00:17:23.046Z,11.48
2019-06-26T00:18:27.630Z,12.35
2019-06-26T00:19:32.870Z,13.15
2019-06-26T00:20:37.310Z,13.13
2019-06-26T00:21:42.348Z,11.78
2019-06-26T00:22:47.106Z,11.88
2019-06-26T00:23:52.131Z,11.80
2019-06-26T00:24:56.901Z,11.88
2019-06-26T00:26:02.246Z,12.00
2019-06-26T00:27:06.674Z,11.83
2019-06-26T00:28:11.992Z,11.75
2019-06-26T00:29:16.759Z,11.63
2019-06-26T00:30:21.894Z,12.13
2019-06-26T00:31:26.384Z,11.65
2019-06-26T00:32:31.392Z,11.97
2019-06-26T00:33:35.879Z,12.68
2019-06-26T00:34:40.887Z,13.03
2019-06-26T00:35:46.679Z,15.20
2019-06-26T00:36:51.681Z,15.03
2019-06-26T00:37:56.497Z,12.40
2019-06-26T00:39:01.547Z,11.83
2019-06-26T00:40:07.919Z,11.38
2019-06-26T00:41:12.935Z,12.40
2019-06-26T00:42:17.362Z,12.95
2019-06-26T00:43:22.790Z,11.88
2019-06-26T00:44:27.230Z,12.25
2019-06-26T00:45:33.306Z,11.22
2019-06-26T00:46:37.802Z,11.80
2019-06-26T00:47:43.248Z,12.37
2019-06-26T00:48:48.069Z,12.25
2019-06-26T00:49:53.083Z,11.65
2019-06-26T00:50:57.505Z,12.55
2019-06-26T00:52:02.519Z,11.85
2019-06-26T00:53:07.011Z,11.97
2019-06-26T00:54:12.376Z,12.20
2019-06-26T00:55:16.937Z,11.40
2019-06-26T00:56:22.994Z,11.22
2019-06-26T00:57:27.427Z,11.83
2019-06-26T00:58:33.800Z,11.38
2019-06-26T00:59:39.346Z,13.40
2019-06-26T01:00:50.431Z,11.45
2019-06-26T01:02:59.576Z,13.53
2019-06-26T01:04:05.637Z,12.10
2019-06-26T01:05:12.064Z,13.88
2019-06-26T01:06:34.048Z,11.75
2019-06-26T01:07:38.822Z,12.07
2019-06-26T01:08:44.731Z,13.67
2019-06-26T01:09:49.467Z,13.20
2019-06-26T01:10:54.877Z,11.50
2019-06-26T01:12:00.370Z,11.90
2019-06-26T01:13:05.451Z,12.37
2019-06-26T01:14:10.212Z,14.73
2019-06-26T01:15:15.696Z,12.20
2019-06-26T01:16:20.133Z,12.18
2019-06-26T01:17:25.485Z,12.40
2019-06-26T01:18:29.939Z,11.18
2019-06-26T01:19:35.019Z,13.32
2019-06-26T01:20:39.443Z,11.57
2019-06-26T01:21:44.512Z,13.25
2019-06-26T01:22:48.948Z,11.68
2019-06-26T01:23:54.013Z,11.85
2019-06-26T01:24:58.426Z,15.00
2019-06-26T01:26:03.451Z,12.45
2019-06-26T01:27:07.909Z,12.80
2019-06-26T01:28:12.921Z,11.60
2019-06-26T01:29:17.386Z,12.53
2019-06-26T01:30:23.633Z,12.40
2019-06-26T01:31:28.296Z,13.15
2019-06-26T01:32:33.347Z,14.78
2019-06-26T01:33:37.773Z,11.73
2019-06-26T01:34:42.825Z,12.70
2019-06-26T01:35:47.247Z,12.00
2019-06-26T01:36:52.261Z,12.53
2019-06-26T01:37:56.685Z,12.85
2019-06-26T01:39:02.058Z,14.95
2019-06-26T01:40:08.298Z,13.60
2019-06-26T01:41:13.725Z,12.70
2019-06-26T01:42:18.148Z,15.15
2019-06-26T01:43:24.226Z,13.10
2019-06-26T01:44:29.157Z,13.55
2019-06-26T01:45:34.463Z,12.43
2019-06-26T01:46:38.922Z,12.33
2019-06-26T01:47:45.003Z,11.57
2019-06-26T01:48:49.426Z,12.18
2019-06-26T01:49:54.439Z,12.93
2019-06-26T01:50:58.901Z,13.55
2019-06-26T01:52:04.277Z,13.00
2019-06-26T01:53:08.997Z,12.00
2019-06-26T01:54:14.056Z,12.93
2019-06-26T01:55:18.542Z,14.45
2019-06-26T01:56:23.625Z,13.35
2019-06-26T01:57:28.055Z,12.95
2019-06-26T01:58:33.111Z,12.98
2019-06-26T01:59:37.919Z,13.35
2019-06-26T02:00:43.157Z,13.70
2019-06-26T02:01:47.881Z,12.05
2019-06-26T02:02:52.970Z,13.32
2019-06-26T02:03:57.556Z,13.32
2019-06-26T02:05:02.643Z,15.63
2019-06-26T02:06:07.147Z,14.53
2019-06-26T02:07:12.910Z,13.90
2019-06-26T02:08:17.370Z,13.95
2019-06-26T02:09:22.480Z,14.58
2019-06-26T02:10:27.108Z,13.20
2019-06-26T02:11:32.183Z,15.93
2019-06-26T02:12:36.678Z,13.90
2019-06-26T02:13:41.758Z,16.00
2019-06-26T02:14:46.318Z,13.80
2019-06-26T02:15:51.623Z,13.32
2019-06-26T02:16:56.361Z,15.18
2019-06-26T02:18:01.377Z,14.63
2019-06-26T02:19:10.672Z,15.48
2019-06-26T02:20:16.330Z,17.48
2019-06-26T02:21:20.922Z,16.25
2019-06-26T02:22:25.930Z,14.87
2019-06-26T02:23:30.897Z,16.17
2019-06-26T02:24:36.013Z,15.38
2019-06-26T02:25:40.488Z,17.25
2019-06-26T02:26:45.573Z,17.45
2019-06-26T02:27:50.361Z,15.65
2019-06-26T02:28:55.364Z,15.65
2019-06-26T02:29:59.830Z,15.60
2019-06-26T02:31:05.027Z,16.20
2019-06-26T02:32:09.481Z,16.40
2019-06-26T02:33:14.502Z,16.17
2019-06-26T02:34:19.030Z,18.02
2019-06-26T02:35:24.377Z,15.43
2019-06-26T02:36:29.084Z,16.23
2019-06-26T02:37:34.095Z,15.05
2019-06-26T02:38:38.854Z,16.57
2019-06-26T02:39:43.854Z,17.65
2019-06-26T02:40:48.353Z,17.67
2019-06-26T02:41:53.635Z,20.52
2019-06-26T02:42:58.231Z,18.80
2019-06-26T02:44:03.419Z,18.10
2019-06-26T02:45:08.152Z,20.23
2019-06-26T02:46:13.225Z,18.82
2019-06-26T02:47:20.461Z,18.27
2019-06-26T02:48:24.354Z,20.90
2019-06-26T02:49:28.786Z,17.98
2019-06-26T02:50:33.906Z,18.87
2019-06-26T02:51:38.665Z,19.48
2019-06-26T02:52:43.682Z,18.95
2019-06-26T02:53:48.098Z,18.62
2019-06-26T02:54:53.161Z,17.77
2019-06-26T02:55:57.587Z,19.95
2019-06-26T02:57:02.879Z,21.35
2019-06-26T02:58:07.375Z,20.65
2019-06-26T02:59:12.387Z,19.57
2019-06-26T03:00:18.217Z,18.82
2019-06-26T03:01:23.258Z,19.77
2019-06-26T03:02:27.693Z,21.65
2019-06-26T03:03:32.758Z,21.68
2019-06-26T03:04:37.176Z,22.02
2019-06-26T03:05:42.184Z,21.15
2019-06-26T03:06:46.612Z,20.25
2019-06-26T03:07:51.650Z,21.68
2019-06-26T03:08:56.123Z,20.45
2019-06-26T03:10:01.112Z,23.22
2019-06-26T03:11:05.777Z,21.17
2019-06-26T03:12:10.861Z,22.15
2019-06-26T03:13:16.502Z,22.05
2019-06-26T03:14:22.352Z,20.50
2019-06-26T03:15:26.822Z,20.97
2019-06-26T03:16:31.830Z,21.52
2019-06-26T03:17:36.605Z,23.70
2019-06-26T03:18:41.686Z,19.37
2019-06-26T03:19:46.552Z,23.45
2019-06-26T03:20:56.674Z,21.27
2019-06-26T03:22:01.131Z,21.27
2019-06-26T03:23:06.208Z,21.75
2019-06-26T03:24:10.636Z,21.57
2019-06-26T03:25:16.282Z,20.92
2019-06-26T03:26:20.931Z,20.25
2019-06-26T03:27:25.949Z,19.40
2019-06-26T03:28:30.447Z,21.97
2019-06-26T03:29:35.457Z,25.50
2019-06-26T03:30:39.952Z,20.77
2019-06-26T03:31:44.970Z,21.00
2019-06-26T03:32:49.498Z,22.82
2019-06-26T03:33:54.503Z,21.60
2019-06-26T03:34:58.937Z,19.85
2019-06-26T03:36:04.278Z,23.60
2019-06-26T03:37:08.708Z,23.05
2019-06-26T03:38:13.901Z,20.70
2019-06-26T03:39:19.190Z,21.95
2019-06-26T03:40:24.455Z,23.07
2019-06-26T03:41:28.922Z,19.32
2019-06-26T03:42:34.929Z,21.75
2019-06-26T03:43:39.579Z,20.00
2019-06-26T03:44:44.873Z,20.85
2019-06-26T03:45:49.412Z,22.40
2019-06-26T03:46:54.492Z,21.40
2019-06-26T03:47:59.027Z,20.45
2019-06-26T03:49:04.185Z,22.73
2019-06-26T03:50:09.681Z,22.65
2019-06-26T03:51:14.765Z,21.95
2019-06-26T03:52:19.393Z,23.05
2019-06-26T03:53:24.475Z,22.48
2019-06-26T03:54:28.942Z,21.50
2019-06-26T03:55:33.954Z,24.87
2019-06-26T03:56:38.677Z,19.67
2019-06-26T03:57:43.685Z,20.40
2019-06-26T03:58:48.463Z,20.90
2019-06-26T03:59:53.614Z,20.10
2019-06-26T04:00:58.438Z,21.82
2019-06-26T04:02:03.447Z,24.63
2019-06-26T04:03:07.931Z,22.40
2019-06-26T04:04:13.321Z,20.12
2019-06-26T04:05:17.849Z,22.42
2019-06-26T04:06:23.220Z,19.87
2019-06-26T04:07:27.832Z,22.17
2019-06-26T04:08:33.318Z,22.48
2019-06-26T04:09:38.095Z,20.57
2019-06-26T04:10:43.773Z,21.10
2019-06-26T04:11:48.529Z,23.65
2019-06-26T04:12:53.569Z,21.80
2019-06-26T04:13:58.242Z,24.82
2019-06-26T04:15:03.665Z,22.62
2019-06-26T04:16:08.548Z,25.23
2019-06-26T04:17:13.553Z,24.80
2019-06-26T04:18:18.121Z,23.95
2019-06-26T04:19:23.124Z,21.87
2019-06-26T04:20:27.620Z,21.82
2019-06-26T04:21:32.951Z,24.12
2019-06-26T04:22:37.874Z,24.12
2019-06-26T04:23:43.132Z,23.83
2019-06-26T04:24:47.960Z,20.52
2019-06-26T04:25:52.715Z,22.70
2019-06-26T04:26:57.371Z,24.27
2019-06-26T04:28:06.142Z,23.77
2019-06-26T04:29:08.980Z,26.02
2019-06-26T04:30:14.813Z,25.05
2019-06-26T04:31:19.287Z,21.85
2019-06-26T04:32:24.604Z,23.55
2019-06-26T04:33:30.145Z,22.13
2019-06-26T04:34:35.462Z,26.33
2019-06-26T04:35:40.016Z,23.35
2019-06-26T04:36:45.350Z,22.37
2019-06-26T04:37:49.873Z,20.95
2019-06-26T04:38:54.927Z,25.45
2019-06-26T04:39:59.414Z,21.70
2019-06-26T04:41:04.490Z,25.23
2019-06-26T04:42:08.999Z,22.15
2019-06-26T04:43:14.129Z,22.17
2019-06-26T04:44:18.613Z,21.60
2019-06-26T04:45:23.945Z,22.13
2019-06-26T04:46:28.495Z,22.87
2019-06-26T04:47:33.850Z,21.68
2019-06-26T04:48:38.592Z,21.42
2019-06-26T04:49:43.713Z,21.25
2019-06-26T04:50:48.413Z,23.87
2019-06-26T04:51:53.421Z,21.73
2019-06-26T04:52:58.257Z,22.00
2019-06-26T04:54:03.585Z,25.57
2019-06-26T04:55:09.736Z,27.48
2019-06-26T04:56:15.118Z,24.23
2019-06-26T04:57:19.635Z,22.65
2019-06-26T04:58:24.708Z,24.98
2019-06-26T04:59:29.432Z,22.00
2019-06-26T05:00:35.512Z,25.52
2019-06-26T05:01:40.404Z,23.10
2019-06-26T05:02:45.483Z,34.25
2019-06-26T05:03:50.216Z,36.65
2019-06-26T05:04:56.400Z,26.00
2019-06-26T05:06:01.107Z,25.17
2019-06-26T05:07:06.224Z,19.75
2019-06-26T05:08:10.667Z,20.97
2019-06-26T05:09:15.678Z,22.17
2019-06-26T05:10:20.348Z,20.17
2019-06-26T05:11:25.353Z,35.60
2019-06-26T05:12:29.882Z,24.60
2019-06-26T05:13:35.363Z,23.55
2019-06-26T05:14:40.123Z,22.52
2019-06-26T05:15:45.190Z,22.48
2019-06-26T05:16:50.021Z,21.12
2019-06-26T05:17:55.036Z,18.67
2019-06-26T05:18:59.781Z,21.20
2019-06-26T05:20:09.256Z,25.75
2019-06-26T05:21:13.812Z,28.95
2019-06-26T05:22:19.127Z,19.85
2019-06-26T05:23:23.542Z,25.20
2019-06-26T05:24:28.886Z,25.00
2019-06-26T05:25:33.369Z,21.23
2019-06-26T05:26:38.606Z,18.40
2019-06-26T05:27:43.342Z,21.27
2019-06-26T05:28:48.350Z,19.82
2019-06-26T05:29:54.482Z,22.22
2019-06-26T05:30:59.964Z,19.17
2019-06-26T05:32:04.885Z,24.72
2019-06-26T05:33:09.924Z,20.43
2019-06-26T05:34:15.422Z,19.65
2019-06-26T05:35:20.904Z,20.55
2019-06-26T05:36:25.328Z,19.23
2019-06-26T05:37:30.441Z,21.33
2019-06-26T05:38:34.862Z,22.77
2019-06-26T05:39:40.013Z,18.70
2019-06-26T05:40:44.471Z,19.15
2019-06-26T05:41:49.476Z,20.00
2019-06-26T05:42:54.210Z,21.90
2019-06-26T05:43:59.285Z,22.00
2019-06-26T05:45:04.184Z,20.57
2019-06-26T05:46:09.326Z,22.87
2019-06-26T05:47:13.838Z,19.00
2019-06-26T05:48:18.881Z,20.85
2019-06-26T05:49:23.372Z,20.15
2019-06-26T05:50:28.755Z,20.15
2019-06-26T05:51:33.308Z,19.20
2019-06-26T05:52:42.185Z,18.82
2019-06-26T05:53:44.473Z,22.48
2019-06-26T05:54:49.814Z,22.52
2019-06-26T05:55:54.216Z,22.22
2019-06-26T05:57:00.642Z,20.55
2019-06-26T05:58:05.177Z,20.72
2019-06-26T05:59:10.519Z,19.42
2019-06-26T06:00:15.753Z,19.65
2019-06-26T06:01:20.931Z,19.45
2019-06-26T06:02:25.352Z,20.62
2019-06-26T06:03:30.690Z,19.42
2019-06-26T06:04:35.124Z,19.62
2019-06-26T06:05:40.640Z,20.48
2019-06-26T06:06:45.459Z,31.35
2019-06-26T06:07:50.786Z,27.85
2019-06-26T06:08:55.578Z,23.32
2019-06-26T06:10:00.581Z,19.92
2019-06-26T06:11:05.448Z,22.87
2019-06-26T06:12:10.780Z,21.45
2019-06-26T06:13:15.246Z,19.65
2019-06-26T06:14:20.249Z,21.15
2019-06-26T06:15:24.748Z,25.68
2019-06-26T06:16:45.964Z,25.12
2019-06-26T06:17:36.838Z,20.32
2019-06-26T06:18:41.835Z,20.97
2019-06-26T06:19:46.314Z,18.57
2019-06-26T06:20:51.363Z,24.25
2019-06-26T06:21:55.782Z,21.12
2019-06-26T06:23:00.794Z,23.27
2019-06-26T06:24:05.988Z,23.75
2019-06-26T06:25:11.394Z,24.05
2019-06-26T06:26:15.891Z,21.65
2019-06-26T06:27:20.990Z,19.07
2019-06-26T06:28:25.453Z,19.52
2019-06-26T06:29:30.920Z,20.52
2019-06-26T06:30:35.459Z,31.33
2019-06-26T06:31:40.811Z,33.05
2019-06-26T06:32:45.631Z,29.77
2019-06-26T06:33:50.641Z,26.73
2019-06-26T06:34:55.588Z,19.90
2019-06-26T06:36:00.937Z,18.90
2019-06-26T06:37:05.396Z,20.68
2019-06-26T06:38:10.755Z,21.50
2019-06-26T06:39:15.244Z,23.52
2019-06-26T06:40:20.328Z,23.35
2019-06-26T06:41:24.750Z,22.62
2019-06-26T06:42:29.795Z,22.98
2019-06-26T06:43:34.492Z,17.92
2019-06-26T06:44:39.513Z,20.75
2019-06-26T06:45:44.111Z,21.95
2019-06-26T06:47:02.944Z,23.18
2019-06-26T06:47:55.580Z,21.20
2019-06-26T06:49:00.597Z,26.48
2019-06-26T06:50:06.958Z,20.80
2019-06-26T06:51:12.274Z,18.00
2019-06-26T06:52:16.942Z,20.30
2019-06-26T06:53:22.074Z,21.73
2019-06-26T06:54:26.476Z,20.43
2019-06-26T06:55:31.647Z,18.10
2019-06-26T06:56:36.132Z,20.12
2019-06-26T06:57:41.207Z,17.73
2019-06-26T06:58:45.623Z,16.50
2019-06-26T06:59:51.045Z,18.52
2019-06-26T07:00:55.537Z,17.30
2019-06-26T07:02:00.556Z,19.55
2019-06-26T07:03:05.620Z,17.82
2019-06-26T07:04:10.658Z,22.42
2019-06-26T07:05:15.213Z,19.90
2019-06-26T07:06:20.225Z,20.08
2019-06-26T07:07:24.650Z,19.85
2019-06-26T07:08:29.692Z,20.77
2019-06-26T07:09:34.112Z,22.55
2019-06-26T07:10:39.118Z,22.45
2019-06-26T07:11:43.541Z,21.93
2019-06-26T07:12:48.544Z,17.70
2019-06-26T07:13:53.974Z,17.37
2019-06-26T07:14:59.064Z,21.57
2019-06-26T07:16:03.483Z,23.20
2019-06-26T07:17:19.995Z,18.00
2019-06-26T07:18:14.659Z,16.23
2019-06-26T07:19:19.668Z,16.30
2019-06-26T07:20:24.091Z,16.20
2019-06-26T07:21:29.167Z,15.90
2019-06-26T07:22:33.624Z,15.00
2019-06-26T07:23:38.630Z,17.75
2019-06-26T07:24:43.056Z,16.30
2019-06-26T07:25:48.068Z,48.55
2019-06-26T07:26:52.868Z,17.48
2019-06-26T07:28:01.632Z,15.18
2019-06-26T07:29:04.376Z,20.90
2019-06-26T07:30:10.420Z,17.30
2019-06-26T07:31:14.912Z,16.30
2019-06-26T07:32:20.276Z,19.50
2019-06-26T07:33:24.759Z,17.37
2019-06-26T07:34:29.770Z,14.03
2019-06-26T07:35:34.428Z,14.75
2019-06-26T07:36:39.434Z,17.92
2019-06-26T07:37:44.160Z,17.67
2019-06-26T07:38:49.212Z,16.40
2019-06-26T07:39:58.772Z,17.98
2019-06-26T07:41:00.795Z,21.20
2019-06-26T07:42:05.354Z,15.25
2019-06-26T07:43:10.407Z,13.83
2019-06-26T07:44:15.124Z,15.48
2019-06-26T07:45:23.890Z,12.78
2019-06-26T07:46:26.465Z,12.70
2019-06-26T07:47:42.603Z,13.28
2019-06-26T07:48:37.710Z,17.62
2019-06-26T07:49:42.751Z,22.82
2019-06-26T07:50:47.504Z,19.50
2019-06-26T07:51:52.576Z,15.35
2019-06-26T07:52:57.004Z,11.93
2019-06-26T07:54:02.417Z,14.15
2019-06-26T07:55:11.581Z,15.40
2019-06-26T07:56:14.432Z,11.65
2019-06-26T07:57:19.306Z,12.35
2019-06-26T07:58:24.721Z,15.72
2019-06-26T07:59:29.216Z,19.12
2019-06-26T08:00:34.312Z,14.10
2019-06-26T08:01:38.718Z,15.93
2019-06-26T08:02:43.726Z,13.50
2019-06-26T08:03:48.624Z,15.58
2019-06-26T08:04:53.625Z,15.58
2019-06-26T08:05:58.052Z,16.12
2019-06-26T08:07:03.201Z,15.32
2019-06-26T08:08:07.725Z,18.40
2019-06-26T08:09:13.143Z,11.40
2019-06-26T08:10:17.784Z,15.78
2019-06-26T08:11:22.996Z,13.75
2019-06-26T08:12:27.786Z,14.60
2019-06-26T08:13:33.122Z,11.30
2019-06-26T08:14:37.942Z,11.90
2019-06-26T08:15:43.018Z,19.60
2019-06-26T08:16:47.740Z,18.67
2019-06-26T08:18:00.400Z,11.90
2019-06-26T08:18:58.868Z,15.35
2019-06-26T08:20:03.936Z,12.40
2019-06-26T08:21:12.706Z,11.38
2019-06-26T08:22:15.533Z,12.28
2019-06-26T08:23:19.962Z,14.53
2019-06-26T08:24:25.108Z,11.60
2019-06-26T08:25:29.926Z,12.03
2019-06-26T08:26:34.927Z,13.03
2019-06-26T08:27:39.706Z,11.85
2019-06-26T08:28:44.746Z,13.03
2019-06-26T08:29:49.443Z,13.53
2019-06-26T08:30:54.518Z,20.35
2019-06-26T08:31:59.047Z,15.18
2019-06-26T08:33:04.277Z,14.25
2019-06-26T08:34:08.698Z,17.35
2019-06-26T08:35:14.123Z,20.85
2019-06-26T08:36:18.910Z,19.35
2019-06-26T08:37:23.952Z,16.05
2019-06-26T08:38:28.370Z,17.42
2019-06-26T08:39:34.436Z,15.88
2019-06-26T08:40:39.243Z,15.28
2019-06-26T08:41:44.283Z,11.90
2019-06-26T08:42:48.694Z,12.73
2019-06-26T08:43:53.700Z,13.18
2019-06-26T08:44:58.113Z,11.83
2019-06-26T08:46:03.167Z,18.27
2019-06-26T08:47:07.886Z,14.10
2019-06-26T08:48:22.945Z,12.45
2019-06-26T08:49:25.413Z,13.98
2019-06-26T08:50:25.714Z,10.13
2019-06-26T08:51:30.513Z,13.60
2019-06-26T08:52:35.523Z,19.95
2019-06-26T08:53:39.941Z,25.68
2019-06-26T08:54:44.949Z,15.25
2019-06-26T08:55:49.413Z,10.60
2019-06-26T08:56:54.436Z,11.40
2019-06-26T08:57:58.935Z,14.18
2019-06-26T08:59:03.972Z,9.90
2019-06-26T09:00:10.357Z,9.85
2019-06-26T09:01:15.526Z,12.40
2019-06-26T09:02:20.141Z,10.72
2019-06-26T09:03:25.244Z,12.75
2019-06-26T09:04:29.663Z,11.70
2019-06-26T09:05:47.611Z,12.25
2019-06-26T09:06:41.082Z,8.58
2019-06-26T09:07:46.079Z,9.28
2019-06-26T09:08:50.843Z,15.05
2019-06-26T09:09:56.121Z,10.08
2019-06-26T09:11:00.968Z,10.72
2019-06-26T09:12:06.051Z,8.65
2019-06-26T09:13:10.549Z,8.60
2019-06-26T09:14:15.530Z,8.35
2019-06-26T09:15:20.315Z,10.63
2019-06-26T09:16:25.387Z,15.40
2019-06-26T09:17:30.065Z,8.68
2019-06-26T09:18:36.214Z,9.38
2019-06-26T09:19:40.805Z,9.05
2019-06-26T09:20:45.842Z,8.18
2019-06-26T09:21:50.418Z,7.62
2019-06-26T09:22:55.519Z,11.18
2019-06-26T09:23:59.956Z,8.30
2019-06-26T09:25:20.779Z,12.58
2019-06-26T09:26:14.870Z,10.75
2019-06-26T09:27:19.968Z,11.95
2019-06-26T09:28:24.430Z,10.72
2019-06-26T09:29:29.433Z,10.55
2019-06-26T09:30:34.219Z,8.68
2019-06-26T09:31:39.220Z,11.35
2019-06-26T09:32:43.735Z,9.70
2019-06-26T09:33:49.010Z,9.55
2019-06-26T09:34:53.725Z,9.35
2019-06-26T09:35:59.002Z,9.40
2019-06-26T09:37:03.546Z,10.03
2019-06-26T09:38:08.519Z,9.18
2019-06-26T09:39:13.079Z,7.62
2019-06-26T09:40:18.661Z,8.75
2019-06-26T09:41:24.046Z,8.98
2019-06-26T09:42:29.117Z,7.58
2019-06-26T09:43:33.529Z,8.13
2019-06-26T09:44:38.570Z,10.78
2019-06-26T09:45:43.059Z,8.25
2019-06-26T09:46:48.407Z,11.70
2019-06-26T09:47:53.231Z,8.53
2019-06-26T09:48:58.297Z,9.15
2019-06-26T09:50:03.748Z,8.05
2019-06-26T09:51:08.879Z,9.65
2019-06-26T09:52:13.283Z,9.78
2019-06-26T09:53:18.636Z,6.90
2019-06-26T09:54:23.078Z,11.43
2019-06-26T09:55:28.148Z,8.53
2019-06-26T09:56:32.807Z,8.53
2019-06-26T09:57:37.961Z,8.90
2019-06-26T09:58:42.370Z,9.28
2019-06-26T09:59:47.703Z,6.90
2019-06-26T10:00:52.256Z,9.40
2019-06-26T10:01:57.252Z,7.30
2019-06-26T10:03:01.713Z,9.00
2019-06-26T10:04:06.773Z,8.30
2019-06-26T10:05:11.975Z,10.82
2019-06-26T10:06:17.299Z,8.95
2019-06-26T10:07:21.983Z,7.33
2019-06-26T10:08:27.285Z,7.30
2019-06-26T10:09:32.074Z,8.20
2019-06-26T10:10:37.035Z,9.35
2019-06-26T10:11:41.448Z,8.25
2019-06-26T10:12:46.595Z,33.58
2019-06-26T10:13:51.485Z,11.53
2019-06-26T10:14:56.467Z,10.88
2019-06-26T10:16:00.922Z,14.65
2019-06-26T10:17:06.058Z,14.63
2019-06-26T10:18:10.487Z,11.63
2019-06-26T10:19:15.471Z,8.70
2019-06-26T10:20:20.375Z,8.53
2019-06-26T10:21:25.812Z,11.53
2019-06-26T10:22:30.566Z,7.87
2019-06-26T10:23:35.771Z,10.53
2019-06-26T10:24:40.147Z,10.28
2019-06-26T10:25:45.159Z,11.70
2019-06-26T10:26:49.913Z,10.13
2019-06-26T10:27:55.030Z,6.58
2019-06-26T10:28:59.460Z,10.55
2019-06-26T10:30:06.035Z,7.67
2019-06-26T10:31:10.581Z,6.55
2019-06-26T10:32:15.926Z,10.55
2019-06-26T10:33:20.534Z,9.40
2019-06-26T10:34:25.573Z,9.15
2019-06-26T10:35:30.263Z,7.92
2019-06-26T10:36:35.544Z,8.28
2019-06-26T10:37:40.033Z,10.05
2019-06-26T10:38:45.375Z,9.28
2019-06-26T10:39:49.750Z,13.78
2019-06-26T10:40:55.729Z,12.07
2019-06-26T10:42:00.256Z,11.63
2019-06-26T10:43:05.506Z,12.05
2019-06-26T10:44:10.190Z,8.53
2019-06-26T10:45:15.570Z,11.05
2019-06-26T10:46:20.112Z,7.17
2019-06-26T10:47:26.611Z,6.80
2019-06-26T10:48:31.100Z,8.43
2019-06-26T10:49:36.159Z,8.50
2019-06-26T10:50:49.823Z,8.98
2019-06-26T10:51:47.573Z,7.62
2019-06-26T10:52:52.215Z,6.53
2019-06-26T10:53:57.275Z,7.80
2019-06-26T10:55:01.698Z,15.28
2019-06-26T10:56:06.904Z,8.50
2019-06-26T10:57:11.774Z,12.47
2019-06-26T10:58:17.168Z,9.40
2019-06-26T10:59:21.998Z,9.23
2019-06-26T11:00:27.616Z,9.08
2019-06-26T11:01:32.349Z,11.80
2019-06-26T11:02:37.783Z,12.78
2019-06-26T11:03:42.202Z,14.00
2019-06-26T11:04:47.723Z,11.33
2019-06-26T11:05:52.223Z,15.15
2019-06-26T11:06:58.517Z,11.22
2019-06-26T11:08:03.001Z,11.93
2019-06-26T11:09:09.223Z,10.40
2019-06-26T11:10:16.043Z,13.68
2019-06-26T11:11:21.341Z,8.13
2019-06-26T11:12:25.753Z,8.40
2019-06-26T11:13:30.847Z,11.57
2019-06-26T11:14:35.302Z,13.20
2019-06-26T11:15:40.481Z,30.52
2019-06-26T11:16:44.917Z,14.20
2019-06-26T11:17:49.928Z,17.57
2019-06-26T11:18:54.329Z,8.10
2019-06-26T11:19:59.442Z,9.03
2019-06-26T11:21:03.970Z,9.98
2019-06-26T11:22:09.042Z,16.05
2019-06-26T11:23:13.794Z,8.75
2019-06-26T11:24:18.780Z,8.63
2019-06-26T11:25:23.598Z,26.12
2019-06-26T11:26:28.600Z,12.70
2019-06-26T11:27:33.983Z,11.38
2019-06-26T11:28:38.989Z,7.83
2019-06-26T11:29:43.708Z,7.30
2019-06-26T11:30:48.733Z,8.58
2019-06-26T11:31:53.184Z,15.98
2019-06-26T11:32:58.232Z,12.68
2019-06-26T11:34:02.656Z,11.22
2019-06-26T11:35:08.358Z,14.50
2019-06-26T11:36:12.816Z,11.88
2019-06-26T11:37:17.943Z,9.90
2019-06-26T11:38:22.356Z,13.10
2019-06-26T11:39:27.688Z,8.13
2019-06-26T11:40:32.218Z,11.70
2019-06-26T11:41:37.682Z,13.18
2019-06-26T11:42:42.208Z,8.38
2019-06-26T11:43:47.207Z,8.80
2019-06-26T11:44:52.003Z,11.78
2019-06-26T11:45:57.375Z,10.08
2019-06-26T11:47:02.128Z,9.20
2019-06-26T11:48:07.318Z,10.23
2019-06-26T11:49:12.046Z,16.00
2019-06-26T11:50:17.757Z,21.60
2019-06-26T11:51:22.248Z,13.20
2019-06-26T11:52:27.700Z,11.43
2019-06-26T11:53:32.489Z,15.35
2019-06-26T11:54:37.500Z,13.68
2019-06-26T11:55:41.930Z,16.67
2019-06-26T11:56:46.983Z,13.35
2019-06-26T11:57:51.871Z,9.75
2019-06-26T11:58:56.881Z,12.23
2019-06-26T12:00:01.969Z,13.68
2019-06-26T12:01:08.228Z,14.15
2019-06-26T12:02:12.849Z,11.30
2019-06-26T12:03:17.986Z,10.00
2019-06-26T12:04:22.513Z,13.85
2019-06-26T12:05:27.579Z,12.58
2019-06-26T12:06:31.995Z,11.25
2019-06-26T12:07:37.141Z,10.58
2019-06-26T12:08:41.926Z,13.48
2019-06-26T12:09:46.989Z,10.10
2019-06-26T12:10:51.462Z,12.10
2019-06-26T12:11:56.490Z,9.43
2019-06-26T12:13:04.063Z,12.65
2019-06-26T12:14:08.065Z,9.95
2019-06-26T12:15:13.265Z,11.88
2019-06-26T12:16:18.642Z,12.70
2019-06-26T12:17:23.343Z,15.70
2019-06-26T12:18:28.417Z,13.28
2019-06-26T12:19:33.100Z,11.22
2019-06-26T12:20:38.521Z,13.30
2019-06-26T12:21:42.948Z,21.52
2019-06-26T12:22:47.954Z,14.78
2019-06-26T12:23:52.680Z,16.73
2019-06-26T12:24:57.680Z,11.90
2019-06-26T12:26:02.510Z,11.18
2019-06-26T12:27:07.509Z,20.52
2019-06-26T12:28:11.996Z,14.35
2019-06-26T12:29:16.992Z,10.72
2019-06-26T12:30:21.861Z,11.35
2019-06-26T12:31:26.912Z,13.60
2019-06-26T12:32:31.404Z,10.70
2019-06-26T12:33:37.660Z,12.73
2019-06-26T12:34:45.067Z,12.43
2019-06-26T12:35:48.825Z,9.83
2019-06-26T12:36:53.346Z,12.70
2019-06-26T12:37:58.712Z,22.50
2019-06-26T12:39:03.498Z,11.55
2019-06-26T12:40:10.730Z,17.37
2019-06-26T12:41:15.185Z,9.80
2019-06-26T12:42:20.542Z,11.45
2019-06-26T12:43:26.386Z,14.85
2019-06-26T12:44:31.457Z,12.18
2019-06-26T12:45:35.864Z,19.52
2019-06-26T12:46:40.954Z,11.53
2019-06-26T12:47:45.791Z,13.15
2019-06-26T12:48:51.867Z,11.20
2019-06-26T12:49:56.354Z,9.90
2019-06-26T12:51:01.357Z,17.00
2019-06-26T12:52:05.942Z,9.13
2019-06-26T12:53:11.247Z,8.65
2019-06-26T12:54:16.014Z,9.53
2019-06-26T12:55:21.122Z,14.07
2019-06-26T12:56:25.532Z,12.05
2019-06-26T12:57:30.885Z,11.40
2019-06-26T12:58:35.371Z,16.05
2019-06-26T12:59:55.967Z,16.60
2019-06-26T13:00:46.848Z,14.20
2019-06-26T13:01:52.111Z,15.85
2019-06-26T13:02:56.603Z,16.52
2019-06-26T13:04:01.610Z,15.63
2019-06-26T13:05:07.839Z,17.37
2019-06-26T13:06:13.242Z,10.90
2019-06-26T13:07:17.774Z,11.97
2019-06-26T13:08:23.905Z,13.08
2019-06-26T13:09:28.654Z,13.75
2019-06-26T13:10:48.450Z,9.65
2019-06-26T13:11:39.787Z,13.15
2019-06-26T13:12:46.034Z,22.70
2019-06-26T13:14:02.128Z,16.75
2019-06-26T13:14:57.312Z,12.63
2019-06-26T13:16:01.802Z,12.95
2019-06-26T13:17:06.946Z,16.57
2019-06-26T13:18:12.370Z,12.80
2019-06-26T13:19:17.533Z,10.53
2019-06-26T13:20:22.122Z,16.60
2019-06-26T13:21:28.230Z,15.38
2019-06-26T13:22:32.651Z,9.45
2019-06-26T13:23:37.953Z,11.40
2019-06-26T13:24:44.085Z,9.23
2019-06-26T13:25:49.530Z,11.35
2019-06-26T13:26:54.684Z,18.00
2019-06-26T13:27:59.887Z,14.70
2019-06-26T13:29:04.304Z,16.50
2019-06-26T13:30:09.951Z,12.30
2019-06-26T13:31:14.410Z,12.10
2019-06-26T13:32:19.768Z,18.32
2019-06-26T13:33:24.178Z,12.25
2019-06-26T13:34:29.189Z,12.88
2019-06-26T13:35:34.016Z,13.58
2019-06-26T13:36:39.347Z,15.38
2019-06-26T13:37:43.791Z,12.20
2019-06-26T13:38:49.063Z,12.93
2019-06-26T13:39:53.484Z,13.95
2019-06-26T13:40:58.524Z,11.70
2019-06-26T13:42:03.149Z,12.40
2019-06-26T13:43:08.470Z,13.05
2019-06-26T13:44:12.986Z,10.08
2019-06-26T13:45:18.110Z,10.75
2019-06-26T13:46:22.595Z,21.15
2019-06-26T13:47:27.588Z,15.32
2019-06-26T13:48:32.362Z,20.52
2019-06-26T13:49:37.666Z,15.35
2019-06-26T13:50:42.513Z,17.55
2019-06-26T13:51:47.843Z,13.38
2019-06-26T13:52:52.327Z,10.10
2019-06-26T13:53:57.308Z,10.08
2019-06-26T13:55:01.727Z,14.65
2019-06-26T13:56:07.123Z,13.30
2019-06-26T13:57:11.555Z,12.23
2019-06-26T13:58:16.583Z,12.10
2019-06-26T13:59:21.002Z,10.08
2019-06-26T14:00:26.068Z,12.75
2019-06-26T14:01:31.267Z,14.05
2019-06-26T14:02:36.340Z,16.05
2019-06-26T14:03:40.771Z,24.50